Time;durP1;ratioP1;P1;durP2;ratioP2;P2;SDS_P1;SDS_P2;PMS_P1;PMS_P2;Temp;Humidity;BMP_temperature;BMP_pressure;BME280_temperature;BME280_humidity;BME280_pressure;Samples;Min_cycle;Max_cycle;Signal;HPM_P1;HPM_P2
2023/05/05 00:01:40;;;;;;;10.77;4.82;;;10.20;66.60;;;;;;4823882;29;20043;-88
2023/05/05 00:04:06;;;;;;;10.40;4.32;;;10.20;66.30;;;;;;4794461;29;20486;-88
2023/05/05 00:06:34;;;;;;;10.13;4.90;;;10.10;66.50;;;;;;4809272;29;20042;-88
2023/05/05 00:09:00;;;;;;;11.90;4.60;;;10.10;66.60;;;;;;4793740;29;20492;-88
2023/05/05 00:11:27;;;;;;;10.75;4.30;;;10.10;66.80;;;;;;4791620;29;20046;-88
2023/05/05 00:13:54;;;;;;;8.60;4.03;;;10.10;66.80;;;;;;4808848;29;20081;-88
2023/05/05 00:16:22;;;;;;;11.57;4.35;;;10.00;66.90;;;;;;4809611;29;20390;-88
2023/05/05 00:18:49;;;;;;;9.33;4.50;;;10.00;67.10;;;;;;4793165;29;20053;-88
2023/05/05 00:21:16;;;;;;;9.60;4.60;;;9.90;67.30;;;;;;4807133;29;20042;-88
2023/05/05 00:23:43;;;;;;;14.27;4.95;;;9.90;67.50;;;;;;4791823;29;20131;-88
2023/05/05 00:26:10;;;;;;;10.75;4.50;;;9.80;67.50;;;;;;4810036;29;20039;-88
2023/05/05 00:28:37;;;;;;;9.20;4.13;;;9.80;67.70;;;;;;4825241;29;20038;-88
2023/05/05 00:31:04;;;;;;;11.03;4.83;;;9.80;67.90;;;;;;4810332;29;20064;-88
2023/05/05 00:33:31;;;;;;;9.80;4.57;;;9.80;67.70;;;;;;4823734;29;20053;-88
2023/05/05 00:35:58;;;;;;;9.75;4.97;;;9.80;67.80;;;;;;4824884;29;20062;-88
2023/05/05 00:38:25;;;;;;;8.68;4.25;;;9.80;67.80;;;;;;4793638;29;20497;-88
2023/05/05 00:40:52;;;;;;;11.02;4.90;;;9.80;67.80;;;;;;4823866;29;20043;-88
2023/05/05 00:43:19;;;;;;;8.67;4.57;;;9.70;68.10;;;;;;4817471;29;20573;-88
2023/05/05 00:45:47;;;;;;;10.23;4.15;;;9.70;68.40;;;;;;4807864;29;20042;-88
2023/05/05 00:48:16;;;;;;;11.80;4.82;;;9.70;68.10;;;;;;4793623;29;20079;-88
2023/05/05 00:50:44;;;;;;;10.30;4.07;;;9.70;68.10;;;;;;4823316;29;20505;-88
2023/05/05 00:53:11;;;;;;;9.40;4.20;;;9.60;68.10;;;;;;4808623;29;20466;-88
2023/05/05 00:55:39;;;;;;;13.57;3.93;;;9.60;68.20;;;;;;4793440;29;20510;-88
2023/05/05 00:58:06;;;;;;;9.43;4.10;;;9.50;68.50;;;;;;4793670;29;20061;-88
2023/05/05 01:00:33;;;;;;;10.95;4.35;;;9.50;68.70;;;;;;4812362;29;20050;-88
2023/05/05 01:03:01;;;;;;;9.77;4.47;;;9.50;68.90;;;;;;4793453;29;20468;-88
2023/05/05 01:05:41;;;;;;;11.10;4.32;;;9.40;68.80;;;;;;4793633;29;20416;-88
2023/05/05 01:08:35;;;;;;;10.90;4.60;;;9.40;68.70;;;;;;4822770;29;20118;-87
2023/05/05 01:11:19;;;;;;;9.45;4.43;;;9.40;68.70;;;;;;4813186;29;20066;-88
2023/05/05 01:13:53;;;;;;;9.95;4.13;;;9.40;68.60;;;;;;4810800;29;20051;-88
2023/05/05 01:16:25;;;;;;;8.85;4.32;;;9.40;68.90;;;;;;4808342;29;20054;-88
2023/05/05 01:19:23;;;;;;;11.57;4.70;;;9.40;69.40;;;;;;4793375;29;20061;-88
2023/05/05 01:22:02;;;;;;;9.60;4.23;;;9.40;68.90;;;;;;4793299;29;20042;-88
2023/05/05 01:24:51;;;;;;;9.82;4.40;;;9.30;69.10;;;;;;4823485;29;20038;-88
2023/05/05 01:27:40;;;;;;;8.75;4.47;;;9.20;69.40;;;;;;4823160;29;20553;-88
2023/05/05 01:30:36;;;;;;;11.88;4.57;;;9.20;69.70;;;;;;4823221;29;20517;-88
2023/05/05 01:33:07;;;;;;;10.95;4.53;;;9.10;70.00;;;;;;4823087;29;20054;-88
2023/05/05 01:35:46;;;;;;;10.13;4.87;;;9.00;70.30;;;;;;4790732;29;20065;-88
2023/05/05 01:38:23;;;;;;;11.02;5.07;;;9.00;70.40;;;;;;4807861;29;20405;-90
2023/05/05 01:41:06;;;;;;;10.07;4.80;;;9.00;70.50;;;;;;4805039;29;20083;-88
2023/05/05 01:43:35;;;;;;;10.00;4.65;;;9.00;70.50;;;;;;4808072;29;20054;-88
2023/05/05 01:46:05;;;;;;;11.10;4.88;;;9.00;70.60;;;;;;4793169;29;20050;-88
2023/05/05 01:48:32;;;;;;;9.43;4.67;;;9.00;70.70;;;;;;4794635;29;20057;-89
2023/05/05 01:51:01;;;;;;;11.65;5.10;;;9.00;70.30;;;;;;4793245;29;20058;-88
2023/05/05 01:53:31;;;;;;;14.48;5.00;;;9.00;70.40;;;;;;4795914;29;20050;-88
2023/05/05 01:55:58;;;;;;;9.77;4.80;;;8.90;70.80;;;;;;4807711;29;20160;-88
2023/05/05 01:58:29;;;;;;;9.75;4.68;;;8.90;70.90;;;;;;4795265;29;20089;-88
2023/05/05 02:00:57;;;;;;;11.63;5.40;;;8.80;70.80;;;;;;4795980;29;20066;-88
2023/05/05 02:03:27;;;;;;;11.88;5.20;;;8.90;71.00;;;;;;4797337;29;20062;-88
2023/05/05 02:05:57;;;;;;;10.68;4.93;;;8.90;71.10;;;;;;4815310;29;20054;-88
2023/05/05 02:08:25;;;;;;;12.48;5.13;;;8.90;70.90;;;;;;4796368;29;20133;-88
2023/05/05 02:10:54;;;;;;;10.25;5.10;;;8.90;70.90;;;;;;4799215;29;20059;-88
2023/05/05 02:13:24;;;;;;;10.70;5.03;;;8.90;71.00;;;;;;4811195;29;20467;-88
2023/05/05 02:15:53;;;;;;;10.90;5.18;;;8.80;71.40;;;;;;4795686;29;20054;-88
2023/05/05 02:18:23;;;;;;;13.48;5.40;;;8.70;71.60;;;;;;4794258;29;20525;-89
2023/05/05 02:20:51;;;;;;;12.20;5.68;;;8.70;71.60;;;;;;4814797;29;20047;-88
2023/05/05 02:23:19;;;;;;;11.15;4.93;;;8.60;71.80;;;;;;4796460;29;20121;-88
2023/05/05 02:25:50;;;;;;;10.07;4.80;;;8.60;71.80;;;;;;4826088;29;20053;-88
2023/05/05 02:28:30;;;;;;;12.10;5.28;;;8.50;72.00;;;;;;4823903;29;20038;-88
2023/05/05 02:30:59;;;;;;;13.73;5.13;;;8.50;72.20;;;;;;4807294;29;20043;-88
2023/05/05 02:33:31;;;;;;;10.90;5.35;;;8.40;72.20;;;;;;4809401;29;20053;-88
2023/05/05 02:36:08;;;;;;;11.55;5.20;;;8.40;72.40;;;;;;4793301;29;20108;-89
2023/05/05 02:38:40;;;;;;;11.13;4.20;;;8.40;72.40;;;;;;4810339;29;20043;-88
2023/05/05 02:41:11;;;;;;;10.15;5.05;;;8.40;72.50;;;;;;4810950;29;20047;-88
2023/05/05 02:43:41;;;;;;;14.10;5.55;;;8.30;72.40;;;;;;4802839;29;20043;-89
2023/05/05 02:46:10;;;;;;;13.00;5.18;;;8.40;72.20;;;;;;4794108;29;20133;-88
2023/05/05 02:48:39;;;;;;;14.57;5.25;;;8.40;72.40;;;;;;4823806;29;20051;-88
2023/05/05 02:51:06;;;;;;;10.50;5.03;;;8.30;72.60;;;;;;4825548;29;20553;-88
2023/05/05 02:53:36;;;;;;;12.70;5.68;;;8.40;72.30;;;;;;4795103;29;20055;-88
2023/05/05 02:56:37;;;;;;;12.05;5.60;;;8.40;72.30;;;;;;4810242;29;20046;-89
2023/05/05 02:59:22;;;;;;;12.20;5.35;;;8.30;72.50;;;;;;4813792;29;20064;-89
2023/05/05 03:02:16;;;;;;;10.20;5.28;;;8.30;72.80;;;;;;4809348;29;20054;-89
2023/05/05 03:05:20;;;;;;;12.47;5.30;;;8.20;72.90;;;;;;4795152;29;20050;-89
2023/05/05 03:08:06;;;;;;;11.25;4.90;;;8.30;73.00;;;;;;4804442;29;20138;-88
2023/05/05 03:11:05;;;;;;;12.07;5.22;;;8.30;73.00;;;;;;4789208;29;20058;-89
2023/05/05 03:13:39;;;;;;;10.75;5.20;;;8.20;73.20;;;;;;4821421;29;20112;-89
2023/05/05 03:16:07;;;;;;;10.73;5.45;;;8.20;73.40;;;;;;4794058;29;20125;-88
2023/05/05 03:18:41;;;;;;;11.80;5.40;;;8.20;73.40;;;;;;4796538;29;20091;-88
2023/05/05 03:21:08;;;;;;;14.45;5.32;;;8.20;73.50;;;;;;4799315;29;20050;-88
2023/05/05 03:23:38;;;;;;;11.85;5.28;;;8.20;73.50;;;;;;4792409;29;20463;-88
2023/05/05 03:26:16;;;;;;;11.35;5.65;;;8.20;73.70;;;;;;4795398;29;20039;-86
2023/05/05 03:28:43;;;;;;;11.60;5.55;;;8.20;73.70;;;;;;4796012;29;20474;-89
2023/05/05 03:31:19;;;;;;;10.57;4.80;;;8.20;73.60;;;;;;4812419;29;20043;-89
2023/05/05 03:33:51;;;;;;;10.85;5.57;;;8.20;73.70;;;;;;4796460;29;20046;-88
2023/05/05 03:36:21;;;;;;;12.13;6.00;;;8.10;73.90;;;;;;4795893;29;20062;-89
2023/05/05 03:38:48;;;;;;;12.48;6.13;;;8.20;74.00;;;;;;4796235;29;20050;-91
2023/05/05 03:41:17;;;;;;;12.05;5.28;;;8.10;73.90;;;;;;4811918;29;20068;-89
2023/05/05 03:43:44;;;;;;;11.40;4.97;;;8.10;73.80;;;;;;4811759;29;20062;-89
2023/05/05 03:46:11;;;;;;;11.02;5.38;;;8.20;74.00;;;;;;4810416;29;20102;-87
2023/05/05 03:48:41;;;;;;;11.73;5.30;;;8.20;73.80;;;;;;4817151;29;20070;-86
2023/05/05 03:51:08;;;;;;;10.93;5.15;;;8.20;73.80;;;;;;4793508;29;20065;-86
2023/05/05 03:53:36;;;;;;;10.85;5.55;;;8.20;73.90;;;;;;4791013;29;20058;-86
2023/05/05 03:56:05;;;;;;;10.87;5.43;;;8.20;73.80;;;;;;4793175;29;20527;-86
2023/05/05 03:58:33;;;;;;;11.82;4.90;;;8.20;73.80;;;;;;4823357;29;20054;-87
2023/05/05 04:01:00;;;;;;;12.80;5.63;;;8.30;73.50;;;;;;4793770;29;20042;-86
2023/05/05 04:03:28;;;;;;;11.60;4.90;;;8.30;73.50;;;;;;4809221;29;20038;-86
2023/05/05 04:05:55;;;;;;;10.25;5.38;;;8.30;73.50;;;;;;4810395;29;20053;-86
2023/05/05 04:08:22;;;;;;;13.40;4.83;;;8.30;73.50;;;;;;4792986;29;20049;-86
2023/05/05 04:10:50;;;;;;;12.48;5.65;;;8.30;73.70;;;;;;4793197;29;20051;-86
2023/05/05 04:13:17;;;;;;;12.60;5.50;;;8.30;73.40;;;;;;4823485;29;20819;-86
2023/05/05 04:15:46;;;;;;;11.73;5.30;;;8.30;73.60;;;;;;4808477;29;20051;-86
2023/05/05 04:18:14;;;;;;;12.95;5.70;;;8.30;73.30;;;;;;4793569;29;20530;-86
2023/05/05 04:20:42;;;;;;;11.30;5.10;;;8.40;73.30;;;;;;4808666;29;20521;-86
2023/05/05 04:23:09;;;;;;;12.10;5.45;;;8.50;73.40;;;;;;4793882;29;20133;-87
2023/05/05 04:25:36;;;;;;;11.88;5.60;;;8.50;73.40;;;;;;4793907;29;20046;-86
2023/05/05 04:28:04;;;;;;;12.90;5.53;;;8.50;73.10;;;;;;4808096;29;20042;-86
2023/05/05 04:30:31;;;;;;;12.52;5.57;;;8.60;72.90;;;;;;4823793;29;20493;-86
2023/05/05 04:32:58;;;;;;;10.73;4.83;;;8.50;72.60;;;;;;4808786;29;20062;-86
2023/05/05 04:35:26;;;;;;;13.32;5.53;;;8.60;72.70;;;;;;4793255;29;20050;-86
2023/05/05 04:37:53;;;;;;;13.20;5.53;;;8.60;72.40;;;;;;4793638;29;20042;-86
2023/05/05 04:40:21;;;;;;;14.98;5.88;;;8.50;72.60;;;;;;4792120;29;20047;-86
2023/05/05 04:42:48;;;;;;;11.95;5.22;;;8.50;72.70;;;;;;4791649;29;20133;-86
2023/05/05 04:45:15;;;;;;;16.13;5.53;;;8.50;72.80;;;;;;4808230;29;20076;-86
2023/05/05 04:47:43;;;;;;;12.27;5.53;;;8.60;72.50;;;;;;4793372;29;20064;-86
2023/05/05 04:50:10;;;;;;;11.68;5.18;;;8.60;72.30;;;;;;4792179;29;20509;-86
2023/05/05 04:52:38;;;;;;;9.80;5.20;;;8.80;72.10;;;;;;4793220;29;20078;-86
2023/05/05 04:55:07;;;;;;;11.52;5.25;;;8.90;72.40;;;;;;4810678;29;20073;-86
2023/05/05 04:57:34;;;;;;;13.47;5.40;;;8.90;72.10;;;;;;4793071;29;20095;-86
2023/05/05 05:00:04;;;;;;;11.23;4.90;;;9.00;72.20;;;;;;4789961;29;20050;-86
2023/05/05 05:02:31;;;;;;;14.50;5.78;;;9.10;71.60;;;;;;4807201;29;20042;-86
2023/05/05 05:04:58;;;;;;;10.77;5.07;;;9.30;71.30;;;;;;4793268;29;20045;-86
2023/05/05 05:07:26;;;;;;;11.50;5.28;;;9.40;71.00;;;;;;4823329;29;20071;-86
2023/05/05 05:09:53;;;;;;;9.83;4.80;;;9.50;71.00;;;;;;4807602;29;20062;-86
2023/05/05 05:12:20;;;;;;;10.93;5.00;;;9.70;70.50;;;;;;4811994;29;20055;-86
2023/05/05 05:14:47;;;;;;;9.68;4.18;;;10.00;70.20;;;;;;4811290;29;20103;-86
2023/05/05 05:17:14;;;;;;;10.73;4.50;;;10.10;69.30;;;;;;4823056;29;20046;-86
2023/05/05 05:19:41;;;;;;;11.82;5.03;;;10.30;68.40;;;;;;4809209;29;20066;-87
2023/05/05 05:22:09;;;;;;;13.00;4.67;;;10.50;68.40;;;;;;4793235;29;20406;-87
2023/05/05 05:24:38;;;;;;;9.65;4.57;;;10.80;68.40;;;;;;4794281;29;20489;-87
2023/05/05 05:27:08;;;;;;;11.95;4.72;;;11.00;66.90;;;;;;4808036;29;20054;-87
2023/05/05 05:29:38;;;;;;;10.30;4.45;;;11.10;66.70;;;;;;4823191;29;20521;-87
2023/05/05 05:32:05;;;;;;;10.48;4.68;;;11.20;67.30;;;;;;4808269;29;20057;-87
2023/05/05 05:34:33;;;;;;;10.33;4.73;;;11.50;66.60;;;;;;4823710;29;20046;-87
2023/05/05 05:37:01;;;;;;;11.70;5.28;;;11.50;65.80;;;;;;4793361;29;20107;-87
2023/05/05 05:39:29;;;;;;;11.63;5.30;;;11.70;65.90;;;;;;4793833;29;20565;-87
2023/05/05 05:41:56;;;;;;;9.55;4.43;;;11.80;65.70;;;;;;4792030;29;20212;-87
2023/05/05 05:44:23;;;;;;;11.18;4.65;;;11.80;65.40;;;;;;4793178;29;20066;-87
2023/05/05 05:46:51;;;;;;;13.00;4.90;;;11.90;66.10;;;;;;4793178;29;20042;-87
2023/05/05 05:49:18;;;;;;;14.45;4.82;;;12.00;65.50;;;;;;4808270;29;20095;-87
2023/05/05 05:51:45;;;;;;;10.40;4.70;;;12.20;65.10;;;;;;4807446;29;20062;-87
2023/05/05 05:54:12;;;;;;;9.90;4.13;;;12.40;65.10;;;;;;4808083;29;20046;-87
2023/05/05 05:56:41;;;;;;;10.18;4.72;;;12.50;64.00;;;;;;4794813;29;20043;-87
2023/05/05 05:59:09;;;;;;;10.50;4.40;;;12.70;64.20;;;;;;4792440;29;20047;-87
2023/05/05 06:01:39;;;;;;;31.05;6.65;;;12.80;63.40;;;;;;4792965;29;20050;-87
2023/05/05 06:04:06;;;;;;;11.57;4.85;;;13.00;64.50;;;;;;4791539;29;20062;-87
2023/05/05 06:06:34;;;;;;;11.13;4.95;;;13.00;63.50;;;;;;4795278;29;20224;-87
2023/05/05 06:09:01;;;;;;;12.30;4.82;;;13.20;63.90;;;;;;4822921;29;20051;-87
2023/05/05 06:11:30;;;;;;;12.50;5.13;;;13.30;64.30;;;;;;4794468;29;20042;-87
2023/05/05 06:13:58;;;;;;;11.05;4.78;;;13.50;62.90;;;;;;4805062;29;20066;-87
2023/05/05 06:16:25;;;;;;;10.40;4.43;;;13.60;61.20;;;;;;4807558;29;20042;-87
2023/05/05 06:18:56;;;;;;;12.13;4.88;;;13.60;62.50;;;;;;4791712;29;20051;-87
2023/05/05 06:21:23;;;;;;;10.85;4.65;;;13.70;62.20;;;;;;4807535;29;20051;-87
2023/05/05 06:23:52;;;;;;;10.30;5.00;;;13.80;61.70;;;;;;4822633;29;20095;-87
2023/05/05 06:26:20;;;;;;;11.70;5.40;;;14.00;61.30;;;;;;4792843;29;20062;-87
2023/05/05 06:28:47;;;;;;;10.57;5.15;;;14.10;61.00;;;;;;4809783;29;20422;-87
2023/05/05 06:31:14;;;;;;;10.07;4.53;;;14.20;60.60;;;;;;4807688;29;20057;-87
2023/05/05 06:33:41;;;;;;;14.00;4.97;;;14.20;61.50;;;;;;4804370;29;20046;-87
2023/05/05 06:36:08;;;;;;;14.33;5.77;;;14.30;61.10;;;;;;4793493;29;20080;-87
2023/05/05 06:38:35;;;;;;;13.02;5.10;;;14.50;61.20;;;;;;4790278;29;20078;-87
2023/05/05 06:41:02;;;;;;;13.00;5.60;;;14.50;60.70;;;;;;4792712;29;20074;-87
2023/05/05 06:43:30;;;;;;;13.63;5.32;;;14.60;60.30;;;;;;4812312;29;20072;-87
2023/05/05 06:45:59;;;;;;;13.38;6.45;;;14.70;59.30;;;;;;4796269;29;20078;-87
2023/05/05 06:48:26;;;;;;;17.30;6.43;;;14.60;60.10;;;;;;4809103;29;20051;-87
2023/05/05 06:50:53;;;;;;;16.13;6.25;;;14.70;60.30;;;;;;4811027;29;20053;-87
2023/05/05 06:53:20;;;;;;;13.90;6.40;;;14.90;59.90;;;;;;4825848;29;20057;-87
2023/05/05 06:55:47;;;;;;;18.45;7.93;;;15.00;60.30;;;;;;4825729;29;20134;-87
2023/05/05 06:58:14;;;;;;;19.45;8.00;;;15.10;58.20;;;;;;4810917;29;20058;-87
2023/05/05 07:00:42;;;;;;;16.07;6.60;;;15.20;58.00;;;;;;4810645;29;20129;-87
2023/05/05 07:03:09;;;;;;;19.27;7.38;;;15.30;59.00;;;;;;4812904;29;20115;-87
2023/05/05 07:05:37;;;;;;;16.90;7.93;;;15.50;58.10;;;;;;4795668;29;20103;-87
2023/05/05 07:08:04;;;;;;;18.30;7.03;;;15.50;58.10;;;;;;4795482;29;20323;-87
2023/05/05 07:10:32;;;;;;;20.65;7.28;;;15.70;58.20;;;;;;4800948;29;20059;-87
2023/05/05 07:12:58;;;;;;;19.77;8.17;;;15.70;57.80;;;;;;4808530;29;20055;-87
2023/05/05 07:15:26;;;;;;;15.80;6.50;;;15.80;58.30;;;;;;4792573;29;20055;-88
2023/05/05 07:17:55;;;;;;;19.13;7.88;;;16.00;56.40;;;;;;4792153;29;20051;-88
2023/05/05 07:20:23;;;;;;;21.02;8.65;;;16.10;57.40;;;;;;4803176;29;20397;-87
2023/05/05 07:22:50;;;;;;;22.77;9.32;;;16.20;57.10;;;;;;4793281;29;20528;-87
2023/05/05 07:25:17;;;;;;;21.53;8.50;;;16.20;57.10;;;;;;4792444;29;20067;-88
2023/05/05 07:27:44;;;;;;;24.85;10.23;;;16.20;58.60;;;;;;4816348;29;20049;-88
2023/05/05 07:30:12;;;;;;;27.45;9.63;;;16.20;58.30;;;;;;4807533;29;20059;-87
2023/05/05 07:32:44;;;;;;;14.48;6.13;;;16.30;56.80;;;;;;4790632;29;20112;-87
2023/05/05 07:35:12;;;;;;;19.58;7.63;;;16.30;54.80;;;;;;4797429;29;20532;-87
2023/05/05 07:37:39;;;;;;;22.83;9.60;;;16.40;55.00;;;;;;4792248;29;20142;-87
2023/05/05 07:40:07;;;;;;;20.90;8.50;;;16.60;54.10;;;;;;4806762;29;20050;-87
2023/05/05 07:42:35;;;;;;;17.85;7.80;;;16.80;55.10;;;;;;4792936;29;20045;-87
2023/05/05 07:45:02;;;;;;;18.73;7.60;;;17.00;53.60;;;;;;4794290;29;20551;-88
2023/05/05 07:47:29;;;;;;;15.38;6.20;;;17.10;54.20;;;;;;4792025;29;20099;-87
2023/05/05 07:49:57;;;;;;;13.77;5.70;;;17.10;51.00;;;;;;4791938;29;20051;-87
2023/05/05 07:52:25;;;;;;;13.68;5.43;;;17.10;50.50;;;;;;4791875;29;20062;-88
2023/05/05 07:55:12;;;;;;;13.00;5.60;;;17.20;49.00;;;;;;4794071;29;20391;-88
2023/05/05 07:57:39;;;;;;;14.57;6.07;;;17.20;49.60;;;;;;4791837;29;20046;-87
2023/05/05 08:00:06;;;;;;;11.93;5.40;;;17.20;48.90;;;;;;4821547;29;20083;-87
2023/05/05 08:02:40;;;;;;;13.60;5.43;;;17.40;51.50;;;;;;4791403;29;20487;-88
2023/05/05 08:05:07;;;;;;;12.52;4.63;;;17.40;49.70;;;;;;4806763;29;20517;-87
2023/05/05 08:07:39;;;;;;;19.17;5.30;;;17.30;49.30;;;;;;4807007;29;20071;-88
2023/05/05 08:10:11;;;;;;;11.80;4.78;;;17.20;50.20;;;;;;4793450;29;20082;-88
2023/05/05 08:12:39;;;;;;;9.27;3.92;;;17.00;48.30;;;;;;4788786;29;20062;-87
2023/05/05 08:15:06;;;;;;;8.33;3.60;;;17.10;49.70;;;;;;4821705;29;20051;-88
2023/05/05 08:17:47;;;;;;;8.60;3.42;;;17.10;50.30;;;;;;4806494;29;20051;-87
2023/05/05 08:20:16;;;;;;;9.02;4.10;;;17.10;49.30;;;;;;4799855;29;20108;-87
2023/05/05 08:22:43;;;;;;;9.00;3.85;;;17.10;50.70;;;;;;4791676;29;20042;-87
2023/05/05 08:25:12;;;;;;;8.50;4.10;;;17.20;51.20;;;;;;4800000;29;20414;-87
2023/05/05 08:27:42;;;;;;;9.40;4.00;;;17.30;51.00;;;;;;4803483;29;20047;-88
2023/05/05 08:30:10;;;;;;;7.78;3.30;;;17.50;51.80;;;;;;4793648;29;20047;-87
2023/05/05 08:32:37;;;;;;;9.73;3.47;;;17.60;50.50;;;;;;4791346;29;20073;-88
2023/05/05 08:35:05;;;;;;;8.82;3.40;;;17.60;51.30;;;;;;4796355;29;20078;-88
2023/05/05 08:37:33;;;;;;;9.07;3.78;;;17.80;50.90;;;;;;4791913;29;20047;-87
2023/05/05 08:40:00;;;;;;;7.57;3.20;;;17.70;51.00;;;;;;4805162;29;20055;-88
2023/05/05 08:42:29;;;;;;;7.70;3.70;;;17.50;49.50;;;;;;4790991;29;20047;-88
2023/05/05 08:45:06;;;;;;;10.88;3.65;;;17.40;49.50;;;;;;4806118;29;20494;-88
2023/05/05 08:47:38;;;;;;;7.28;3.15;;;17.30;50.70;;;;;;4806163;29;20062;-88
2023/05/05 08:50:09;;;;;;;9.85;4.45;;;17.50;51.50;;;;;;4792488;29;20108;-88
2023/05/05 08:52:44;;;;;;;10.40;4.00;;;17.50;53.50;;;;;;4790999;29;20107;-88
2023/05/05 08:55:25;;;;;;;8.82;3.92;;;17.40;50.80;;;;;;4804532;29;20113;-88
2023/05/05 08:57:56;;;;;;;8.98;4.70;;;17.40;51.80;;;;;;4790970;29;20078;-88
2023/05/05 09:00:25;;;;;;;10.23;4.20;;;17.40;51.30;;;;;;4790819;29;20082;-88
2023/05/05 09:02:58;;;;;;;7.72;3.90;;;17.50;51.30;;;;;;4806777;29;20051;-87
2023/05/05 09:05:26;;;;;;;12.93;4.33;;;17.70;52.50;;;;;;4793671;29;20093;-88
2023/05/05 09:07:53;;;;;;;9.98;3.78;;;17.80;52.10;;;;;;4805655;29;20051;-88
2023/05/05 09:10:20;;;;;;;7.30;3.80;;;17.70;50.10;;;;;;4789313;29;20598;-88
2023/05/05 09:12:49;;;;;;;9.65;4.30;;;17.80;50.00;;;;;;4796503;29;20111;-88
2023/05/05 09:15:17;;;;;;;9.63;4.32;;;17.80;49.00;;;;;;4790933;29;20103;-87
2023/05/05 09:17:44;;;;;;;9.13;3.80;;;17.80;48.90;;;;;;4793128;29;20043;-88
2023/05/05 09:20:15;;;;;;;10.25;4.05;;;17.80;48.90;;;;;;4791279;29;20510;-88
2023/05/05 09:22:43;;;;;;;14.20;4.18;;;17.90;47.70;;;;;;4791494;29;20061;-88
2023/05/05 09:25:13;;;;;;;8.35;3.50;;;18.00;48.50;;;;;;4790926;29;20047;-88
2023/05/05 09:27:41;;;;;;;9.65;3.60;;;18.00;46.90;;;;;;4805400;29;20541;-88
2023/05/05 09:30:10;;;;;;;7.87;3.47;;;18.00;46.70;;;;;;4805747;29;20053;-87
2023/05/05 09:32:56;;;;;;;8.38;3.70;;;18.30;48.20;;;;;;4820856;29;20108;-88
2023/05/05 09:35:23;;;;;;;8.88;3.60;;;18.30;46.60;;;;;;4817939;29;20047;-88
2023/05/05 09:37:50;;;;;;;7.72;3.50;;;18.40;48.40;;;;;;4803325;29;20541;-87
2023/05/05 09:40:18;;;;;;;7.53;3.00;;;18.40;47.40;;;;;;4790632;29;20066;-88
2023/05/05 09:42:46;;;;;;;7.63;2.90;;;18.50;46.70;;;;;;4789957;29;20039;-88
2023/05/05 09:45:16;;;;;;;7.22;2.95;;;18.60;46.40;;;;;;4787417;29;20495;-88
2023/05/05 09:47:47;;;;;;;7.30;2.83;;;18.80;47.00;;;;;;4787248;29;20043;-88
2023/05/05 09:50:17;;;;;;;11.98;2.95;;;19.00;47.70;;;;;;4801413;29;20507;-88
2023/05/05 09:53:02;;;;;;;10.27;2.80;;;19.00;44.30;;;;;;4799069;29;20047;-88
2023/05/05 09:55:29;;;;;;;7.17;2.40;;;19.00;46.00;;;;;;4790617;29;20055;-87
2023/05/05 09:58:18;;;;;;;6.57;2.58;;;19.00;43.60;;;;;;4789336;29;20043;-88
2023/05/05 10:00:46;;;;;;;7.65;2.58;;;19.10;44.80;;;;;;4790585;29;20050;-88
2023/05/05 10:03:13;;;;;;;5.68;2.22;;;19.20;43.30;;;;;;4790255;29;20506;-88
2023/05/05 10:05:58;;;;;;;7.78;2.80;;;19.10;43.50;;;;;;4789118;29;20055;-88
2023/05/05 10:08:32;;;;;;;6.13;2.30;;;19.10;42.90;;;;;;4790691;29;20108;-88
2023/05/05 10:11:05;;;;;;;7.57;2.30;;;19.10;42.40;;;;;;4790226;29;20046;-88
2023/05/05 10:13:36;;;;;;;6.70;2.40;;;19.10;43.50;;;;;;4805112;29;20058;-88
2023/05/05 10:16:08;;;;;;;5.88;2.15;;;19.20;43.50;;;;;;4788541;29;20055;-88
2023/05/05 10:18:38;;;;;;;7.22;2.50;;;19.30;43.10;;;;;;4791773;29;20401;-88
2023/05/05 10:21:07;;;;;;;6.53;2.30;;;19.50;42.80;;;;;;4793490;29;20175;-88
2023/05/05 10:23:38;;;;;;;6.32;2.17;;;19.60;45.40;;;;;;4793923;29;20039;-87
2023/05/05 10:26:06;;;;;;;6.40;2.70;;;19.60;40.80;;;;;;4808656;29;20057;-88
2023/05/05 10:28:47;;;;;;;6.05;2.35;;;19.70;42.20;;;;;;4793675;29;20055;-88
2023/05/05 10:31:23;;;;;;;7.15;2.42;;;19.70;43.10;;;;;;4792607;29;20118;-88
2023/05/05 10:34:07;;;;;;;6.40;2.43;;;19.60;41.80;;;;;;4805587;29;20051;-88
2023/05/05 10:36:37;;;;;;;6.38;2.30;;;19.80;42.20;;;;;;4805598;29;20047;-88
2023/05/05 10:39:09;;;;;;;6.15;2.13;;;19.90;43.30;;;;;;4815317;29;20150;-88
2023/05/05 10:41:37;;;;;;;7.30;2.28;;;20.00;41.50;;;;;;4798147;29;20456;-88
2023/05/05 10:44:05;;;;;;;8.90;2.63;;;20.00;41.90;;;;;;4818881;29;20082;-88
2023/05/05 10:46:32;;;;;;;8.70;2.70;;;19.90;39.80;;;;;;4793570;29;20103;-88
2023/05/05 10:49:27;;;;;;;8.07;2.67;;;19.90;41.40;;;;;;4793414;29;20066;-88
2023/05/05 10:51:59;;;;;;;5.13;2.20;;;20.00;41.40;;;;;;4808386;29;20057;-88
2023/05/05 10:55:10;;;;;;;6.20;2.22;;;20.10;42.80;;;;;;4823143;29;20062;-88
2023/05/05 10:57:45;;;;;;;5.85;2.30;;;20.30;40.30;;;;;;4808136;29;20516;-88
2023/05/05 11:00:47;;;;;;;6.83;2.83;;;20.50;41.30;;;;;;4793759;29;20529;-88
2023/05/05 11:03:17;;;;;;;7.28;2.28;;;20.40;38.60;;;;;;4797411;29;20051;-88
2023/05/05 11:06:03;;;;;;;7.80;2.58;;;20.40;40.00;;;;;;4808197;29;20142;-88
2023/05/05 11:08:41;;;;;;;7.25;2.30;;;20.50;41.30;;;;;;4793062;29;20459;-88
2023/05/05 11:11:09;;;;;;;5.97;2.25;;;20.60;40.60;;;;;;4789971;29;20081;-88
2023/05/05 11:13:39;;;;;;;8.20;2.83;;;20.60;40.50;;;;;;4789641;29;20506;-88
2023/05/05 11:16:41;;;;;;;6.88;2.58;;;20.60;39.10;;;;;;4789784;29;20061;-88
2023/05/05 11:19:42;;;;;;;6.97;2.90;;;20.60;39.30;;;;;;4782075;29;20055;-88
2023/05/05 11:22:10;;;;;;;9.05;2.72;;;20.60;38.70;;;;;;4786729;30;20052;-88
2023/05/05 11:24:38;;;;;;;7.25;2.30;;;20.60;40.80;;;;;;4789599;30;20141;-88
2023/05/05 11:27:05;;;;;;;6.90;2.50;;;20.80;41.10;;;;;;4789632;29;20052;-88
2023/05/05 11:30:03;;;;;;;7.97;2.58;;;20.70;40.80;;;;;;4789141;29;20134;-88
2023/05/05 11:32:32;;;;;;;7.70;2.45;;;20.80;40.30;;;;;;4789644;29;20075;-88
2023/05/05 11:35:00;;;;;;;8.43;2.25;;;20.60;37.50;;;;;;4789146;30;20051;-88
2023/05/05 11:37:28;;;;;;;5.30;2.10;;;20.80;39.40;;;;;;4789720;30;20534;-88
2023/05/05 11:40:13;;;;;;;4.93;1.83;;;20.80;36.60;;;;;;4789490;29;20109;-88
2023/05/05 11:42:40;;;;;;;7.22;2.10;;;20.60;40.40;;;;;;4789401;30;20149;-88
2023/05/05 11:45:22;;;;;;;7.53;2.40;;;20.40;37.50;;;;;;4789242;29;20048;-88
2023/05/05 11:47:49;;;;;;;5.50;2.22;;;20.50;37.60;;;;;;4789438;29;20094;-88
2023/05/05 11:50:21;;;;;;;7.13;2.78;;;20.50;37.20;;;;;;4789566;29;20043;-88
2023/05/05 11:52:49;;;;;;;6.53;2.47;;;20.50;37.40;;;;;;4800814;29;20055;-88
2023/05/05 11:55:19;;;;;;;6.53;2.40;;;20.50;38.10;;;;;;4808766;29;20586;-88
2023/05/05 11:57:47;;;;;;;6.05;2.03;;;20.60;39.30;;;;;;4789182;29;20388;-88
2023/05/05 12:00:14;;;;;;;5.63;2.00;;;20.80;38.20;;;;;;4804189;29;20069;-88
2023/05/05 12:02:41;;;;;;;5.40;2.05;;;20.90;37.40;;;;;;4788968;29;20514;-88
2023/05/05 12:05:09;;;;;;;8.30;2.10;;;21.00;35.60;;;;;;4788727;29;20430;-88
2023/05/05 12:07:36;;;;;;;5.15;1.95;;;20.80;35.40;;;;;;4804163;29;20051;-88
2023/05/05 12:10:03;;;;;;;6.47;1.80;;;21.00;39.40;;;;;;4788681;29;20537;-89
2023/05/05 12:12:38;;;;;;;5.65;2.20;;;21.10;39.70;;;;;;4773977;30;20051;-88
2023/05/05 12:15:06;;;;;;;5.70;1.75;;;21.20;34.60;;;;;;4770887;30;20063;-88
2023/05/05 12:17:43;;;;;;;5.33;1.83;;;21.20;38.90;;;;;;4803831;29;20062;-88
2023/05/05 12:20:11;;;;;;;7.50;2.10;;;21.10;36.50;;;;;;4773900;30;20063;-88
2023/05/05 12:22:39;;;;;;;6.60;2.45;;;21.10;35.70;;;;;;4803435;29;20055;-88
2023/05/05 12:25:07;;;;;;;6.20;2.15;;;21.10;35.90;;;;;;4770786;30;20047;-88
2023/05/05 12:27:35;;;;;;;7.22;2.60;;;21.10;36.00;;;;;;4802806;29;20082;-88
2023/05/05 12:30:13;;;;;;;6.57;2.60;;;21.40;37.90;;;;;;4773827;30;20059;-88
2023/05/05 12:32:41;;;;;;;6.00;1.95;;;21.20;34.30;;;;;;4788425;29;20080;-88
2023/05/05 12:35:09;;;;;;;6.93;2.17;;;21.10;37.40;;;;;;4803540;29;20059;-88
2023/05/05 12:37:37;;;;;;;6.25;1.92;;;21.10;35.50;;;;;;4773898;30;20051;-88
2023/05/05 12:40:05;;;;;;;5.75;1.95;;;21.10;36.20;;;;;;4788278;29;20419;-88
2023/05/05 12:42:38;;;;;;;7.30;1.90;;;21.10;35.70;;;;;;4792151;29;20056;-88
2023/05/05 12:45:14;;;;;;;5.53;2.08;;;21.30;36.80;;;;;;4773625;30;20131;-88
2023/05/05 12:47:43;;;;;;;5.35;2.33;;;21.20;34.00;;;;;;4773816;30;20055;-88
2023/05/05 12:50:10;;;;;;;4.75;1.88;;;21.30;36.00;;;;;;4773160;30;20047;-88
2023/05/05 12:52:43;;;;;;;6.93;2.30;;;21.40;35.70;;;;;;4773293;30;20526;-88
2023/05/05 12:55:11;;;;;;;4.60;1.80;;;21.40;34.30;;;;;;4787590;30;20087;-88
2023/05/05 12:57:56;;;;;;;6.40;2.42;;;21.60;33.50;;;;;;4773235;30;20104;-89
2023/05/05 13:00:24;;;;;;;7.03;2.20;;;21.70;35.80;;;;;;4774804;30;20499;-87
2023/05/05 13:02:51;;;;;;;4.90;2.05;;;21.90;37.40;;;;;;4788173;29;20444;-87
2023/05/05 13:05:34;;;;;;;5.78;2.13;;;21.90;36.00;;;;;;4801398;29;20499;-87